Hama, Syria
Current Conditions -  °F | °C
As of 9:00 AM on Saturday 01 Nov 2014 (Local Time) from OSLK Reporting Station
Broken Clouds Broken Clouds  
Wind Chill: 61°   Ceiling: 3000
Heat Index: 61°   Visibility: 6mi
Dew Point: 55°   Wind: 9mph
Humidity: 82%   Direction: 110°ESE
Pressure: 29.91"   Gusts: NA
Location:  35.13°N, 36.75°E
Report Text: OSLK 010600Z 11008KT 9999 SCT026CB BKN030 16/13 Q1013
Loading
Personal Weather Stations






























Interactive Weather Map
Tropical Storm Tracking
New forecast layout! Learn more

10-Day Weather Forecast

Advertisements
Track Severe Weather on mobile